createdAt,value
2023-01-08T00:01:12.481Z,1.40
2023-01-08T00:03:40.348Z,1.40
2023-01-08T00:06:11.559Z,1.30
2023-01-08T00:08:39.186Z,1.30
2023-01-08T00:11:06.520Z,1.20
2023-01-08T00:13:34.452Z,1.20
2023-01-08T00:16:06.960Z,1.20
2023-01-08T00:18:34.819Z,1.20
2023-01-08T00:21:02.175Z,1.20
2023-01-08T00:23:30.033Z,1.20
2023-01-08T00:25:57.337Z,1.20
2023-01-08T00:28:24.498Z,1.20
2023-01-08T00:30:51.868Z,1.20
2023-01-08T00:33:19.362Z,1.20
2023-01-08T00:35:46.465Z,1.20
2023-01-08T00:38:13.816Z,1.20
2023-01-08T00:40:41.736Z,1.20
2023-01-08T00:43:08.990Z,1.20
2023-01-08T00:45:36.354Z,1.10
2023-01-08T00:48:03.528Z,1.20
2023-01-08T00:50:30.915Z,1.20
2023-01-08T00:52:58.128Z,1.10
2023-01-08T00:55:25.659Z,1.10
2023-01-08T00:57:52.948Z,1.10
2023-01-08T01:00:20.094Z,1.20
2023-01-08T01:02:47.625Z,1.10
2023-01-08T01:05:15.826Z,1.00
2023-01-08T01:07:44.515Z,1.00
2023-01-08T01:10:13.817Z,1.00
2023-01-08T01:12:41.693Z,1.00
2023-01-08T01:15:11.953Z,1.00
2023-01-08T01:17:40.418Z,0.90
2023-01-08T01:20:09.709Z,0.90
2023-01-08T01:22:36.989Z,0.80
2023-01-08T01:25:04.776Z,0.80
2023-01-08T01:27:32.256Z,0.70
2023-01-08T01:29:59.362Z,0.70
2023-01-08T01:32:26.529Z,0.70
2023-01-08T01:34:53.806Z,0.70
2023-01-08T01:37:21.025Z,0.70
2023-01-08T01:39:48.460Z,0.60
2023-01-08T01:42:38.450Z,0.70
2023-01-08T01:45:19.278Z,0.70
2023-01-08T01:47:50.398Z,0.70
2023-01-08T01:50:38.344Z,0.60
2023-01-08T01:53:10.183Z,0.60
2023-01-08T01:55:41.718Z,0.70
2023-01-08T01:58:11.231Z,0.70
2023-01-08T02:00:38.961Z,0.70
2023-01-08T02:03:07.071Z,0.70
2023-01-08T02:05:56.904Z,0.70
2023-01-08T02:08:59.863Z,0.70
2023-01-08T02:12:09.774Z,0.70
2023-01-08T02:14:58.120Z,0.60
2023-01-08T02:17:39.496Z,0.60
2023-01-08T02:20:31.449Z,0.60
2023-01-08T02:23:21.988Z,0.60
2023-01-08T02:25:52.512Z,0.60
2023-01-08T02:28:22.070Z,0.60
2023-01-08T02:30:50.070Z,0.60
2023-01-08T02:33:17.288Z,0.50
2023-01-08T02:35:52.316Z,0.50
2023-01-08T02:38:19.813Z,0.40
2023-01-08T02:40:59.194Z,0.40
2023-01-08T02:43:34.042Z,0.30
2023-01-08T02:46:02.654Z,0.30
2023-01-08T02:48:43.722Z,0.40
2023-01-08T02:51:21.875Z,0.40
2023-01-08T02:53:55.173Z,0.30
2023-01-08T02:56:27.404Z,0.30
2023-01-08T02:58:56.296Z,0.30
2023-01-08T03:01:25.206Z,0.20
2023-01-08T03:03:57.192Z,0.20
2023-01-08T03:06:25.752Z,0.20
2023-01-08T03:08:54.908Z,0.20
2023-01-08T03:11:24.868Z,0.20
2023-01-08T03:14:15.590Z,0.20
2023-01-08T03:16:48.859Z,0.10
2023-01-08T03:19:22.128Z,0.10
2023-01-08T03:21:52.352Z,0.10
2023-01-08T03:24:25.810Z,0.20
2023-01-08T03:26:58.908Z,0.10
2023-01-08T03:29:26.951Z,0.10
2023-01-08T03:31:58.472Z,0.10
2023-01-08T03:34:28.437Z,0.10
2023-01-08T03:37:01.538Z,0.10
2023-01-08T03:39:31.547Z,0.10
2023-01-08T03:42:03.105Z,0.10
2023-01-08T03:44:30.248Z,0.10
2023-01-08T03:46:58.732Z,0.10
2023-01-08T03:49:28.967Z,0.10
2023-01-08T03:51:56.755Z,0.10
2023-01-08T03:54:29.748Z,0.10
2023-01-08T03:56:57.676Z,0.20
2023-01-08T03:59:24.917Z,0.10
2023-01-08T04:01:52.374Z,0.10
2023-01-08T04:04:19.699Z,0.10
2023-01-08T04:06:47.028Z,0.00
2023-01-08T04:09:14.240Z,0.00
2023-01-08T04:11:41.966Z,0.10
2023-01-08T04:14:09.486Z,0.00
2023-01-08T04:16:36.670Z,0.00
2023-01-08T04:19:03.955Z,0.00
2023-01-08T04:21:31.436Z,0.00
2023-01-08T04:23:58.850Z,0.00
2023-01-08T04:26:25.945Z,-0.10
2023-01-08T04:28:53.566Z,-0.10
2023-01-08T04:31:20.697Z,-0.10
2023-01-08T04:33:47.909Z,-0.10
2023-01-08T04:36:15.452Z,-0.20
2023-01-08T04:38:42.872Z,-0.20
2023-01-08T04:41:10.037Z,-0.30
2023-01-08T04:43:37.273Z,-0.30
2023-01-08T04:46:07.752Z,-0.20
2023-01-08T04:48:52.527Z,-0.20
2023-01-08T04:51:20.031Z,-0.30
2023-01-08T04:53:47.404Z,-0.30
2023-01-08T04:56:14.717Z,-0.30
2023-01-08T04:58:41.906Z,-0.40
2023-01-08T05:01:12.804Z,-0.30
2023-01-08T05:03:40.074Z,-0.30
2023-01-08T05:06:08.311Z,-0.40
2023-01-08T05:08:35.659Z,-0.40
2023-01-08T05:11:03.309Z,-0.30
2023-01-08T05:13:30.788Z,-0.30
2023-01-08T05:16:01.054Z,-0.30
2023-01-08T05:18:29.667Z,-0.40
2023-01-08T05:21:02.406Z,-0.30
2023-01-08T05:23:30.778Z,-0.30
2023-01-08T05:26:02.515Z,-0.40
2023-01-08T05:28:30.586Z,-0.40
2023-01-08T05:30:58.408Z,-0.40
2023-01-08T05:33:26.625Z,-0.40
2023-01-08T05:35:53.982Z,-0.30
2023-01-08T05:38:21.492Z,-0.30
2023-01-08T05:40:48.734Z,-0.40
2023-01-08T05:43:16.010Z,-0.50
2023-01-08T05:45:43.284Z,-0.40
2023-01-08T05:48:10.352Z,-0.50
2023-01-08T05:50:37.625Z,-0.50
2023-01-08T05:53:08.772Z,-0.60
2023-01-08T05:55:36.759Z,-0.60
2023-01-08T05:58:05.592Z,-0.60
2023-01-08T06:00:34.404Z,-0.60
2023-01-08T06:03:02.006Z,-0.60
2023-01-08T06:05:31.083Z,-0.60
2023-01-08T06:08:21.934Z,-0.60
2023-01-08T06:10:49.129Z,-0.70
2023-01-08T06:13:16.292Z,-0.60
2023-01-08T06:15:43.581Z,-0.60
2023-01-08T06:18:11.014Z,-0.60
2023-01-08T06:20:38.418Z,-0.60
2023-01-08T06:23:05.549Z,-0.60
2023-01-08T06:25:32.848Z,-0.70
2023-01-08T06:28:00.204Z,-0.70
2023-01-08T06:30:27.345Z,-0.70
2023-01-08T06:32:58.724Z,-0.70
2023-01-08T06:35:26.755Z,-0.70
2023-01-08T06:37:56.430Z,-0.70
2023-01-08T06:40:24.871Z,-0.80
2023-01-08T06:42:51.992Z,-0.80
2023-01-08T06:45:19.520Z,-0.80
2023-01-08T06:47:46.848Z,-0.80
2023-01-08T06:50:14.024Z,-0.80
2023-01-08T06:52:41.381Z,-0.80
2023-01-08T06:55:08.986Z,-0.80
2023-01-08T06:57:36.879Z,-0.80
2023-01-08T07:00:04.653Z,-0.80
2023-01-08T07:02:32.048Z,-0.70
2023-01-08T07:04:59.339Z,-0.60
2023-01-08T07:07:26.718Z,-0.60
2023-01-08T07:09:55.309Z,-0.70
2023-01-08T07:12:22.606Z,-0.60
2023-01-08T07:14:49.835Z,-0.60
2023-01-08T07:17:16.971Z,-0.70
2023-01-08T07:19:44.243Z,-0.70
2023-01-08T07:22:11.347Z,-0.70
2023-01-08T07:24:38.631Z,-0.70
2023-01-08T07:27:05.792Z,-0.70
2023-01-08T07:29:32.941Z,-0.60
2023-01-08T07:32:00.283Z,-0.60
2023-01-08T07:34:27.516Z,-0.60
2023-01-08T07:36:54.826Z,-0.40
2023-01-08T07:39:21.992Z,-0.40
2023-01-08T07:41:49.129Z,-0.40
2023-01-08T07:44:17.445Z,-0.30
2023-01-08T07:46:44.933Z,-0.30
2023-01-08T07:49:12.566Z,-0.30
2023-01-08T07:51:39.830Z,-0.40
2023-01-08T07:54:07.024Z,-0.40
2023-01-08T07:56:34.517Z,-0.40
2023-01-08T07:59:01.733Z,-0.20
2023-01-08T08:01:28.927Z,-0.20
2023-01-08T08:03:56.509Z,-0.10
2023-01-08T08:06:23.788Z,0.00
2023-01-08T08:08:50.950Z,0.10
2023-01-08T08:11:18.104Z,0.20
2023-01-08T08:13:45.402Z,0.30
2023-01-08T08:16:13.494Z,0.30
2023-01-08T08:18:40.652Z,0.50
2023-01-08T08:21:07.929Z,0.50
2023-01-08T08:23:36.686Z,0.60
2023-01-08T08:26:05.305Z,0.70
2023-01-08T08:28:32.669Z,0.80
2023-01-08T08:31:00.057Z,1.00
2023-01-08T08:33:27.236Z,0.90
2023-01-08T08:35:54.416Z,0.90
2023-01-08T08:38:23.891Z,0.90
2023-01-08T08:40:51.455Z,0.80
2023-01-08T08:43:18.994Z,0.90
2023-01-08T08:45:46.505Z,0.90
2023-01-08T08:48:13.886Z,1.00
2023-01-08T08:50:41.344Z,1.10
2023-01-08T08:53:10.270Z,1.10
2023-01-08T08:55:37.291Z,1.10
2023-01-08T08:58:11.607Z,1.10
2023-01-08T09:00:41.778Z,1.10
2023-01-08T09:03:14.983Z,1.20
2023-01-08T09:05:46.806Z,1.10
2023-01-08T09:08:14.441Z,1.20
2023-01-08T09:10:42.737Z,1.20
2023-01-08T09:13:10.831Z,1.20
2023-01-08T09:15:38.569Z,1.10
2023-01-08T09:18:05.939Z,1.10
2023-01-08T09:20:33.549Z,1.20
2023-01-08T09:23:01.499Z,1.30
2023-01-08T09:25:28.815Z,1.40
2023-01-08T09:28:07.168Z,1.70
2023-01-08T09:30:35.170Z,2.20
2023-01-08T09:33:04.199Z,2.40
2023-01-08T09:35:33.307Z,2.60
2023-01-08T09:38:01.070Z,2.90
2023-01-08T09:40:35.775Z,3.10
2023-01-08T09:43:03.766Z,3.20
2023-01-08T09:45:34.002Z,3.40
2023-01-08T09:48:06.307Z,3.50
2023-01-08T09:50:34.889Z,3.60
2023-01-08T09:53:02.292Z,3.40
2023-01-08T09:55:33.993Z,3.40
2023-01-08T09:58:03.313Z,3.10
2023-01-08T10:00:34.099Z,3.00
2023-01-08T10:03:01.627Z,3.00
2023-01-08T10:05:31.056Z,3.10
2023-01-08T10:07:58.808Z,3.00
2023-01-08T10:10:29.845Z,3.00
2023-01-08T10:12:58.342Z,2.90
2023-01-08T10:15:25.885Z,2.80
2023-01-08T10:18:01.232Z,2.80
2023-01-08T10:20:29.155Z,2.70
2023-01-08T10:22:57.360Z,2.90
2023-01-08T10:25:27.033Z,3.10
2023-01-08T10:27:57.953Z,3.30
2023-01-08T10:30:42.108Z,3.40
2023-01-08T10:33:20.327Z,3.30
2023-01-08T10:35:55.892Z,3.30
2023-01-08T10:38:26.247Z,3.20
2023-01-08T10:40:53.995Z,3.30
2023-01-08T10:43:33.923Z,3.20
2023-01-08T10:46:06.798Z,3.00
2023-01-08T10:48:35.015Z,3.00
2023-01-08T10:51:07.436Z,3.10
2023-01-08T10:53:34.830Z,3.20
2023-01-08T10:56:04.308Z,3.20
2023-01-08T10:58:42.051Z,3.30
2023-01-08T11:01:11.993Z,3.70
2023-01-08T11:03:40.497Z,4.00
2023-01-08T11:06:22.853Z,4.10
2023-01-08T11:08:52.470Z,4.10
2023-01-08T11:11:20.481Z,4.30
2023-01-08T11:13:56.884Z,4.60
2023-01-08T11:16:33.453Z,5.00
2023-01-08T11:19:00.789Z,5.30
2023-01-08T11:21:31.763Z,5.40
2023-01-08T11:24:18.694Z,5.40
2023-01-08T11:26:52.325Z,5.70
2023-01-08T11:29:30.917Z,6.00
2023-01-08T11:32:25.118Z,6.20
2023-01-08T11:34:59.397Z,6.40
2023-01-08T11:37:32.072Z,6.70
2023-01-08T11:39:59.487Z,6.60
2023-01-08T11:42:38.363Z,6.10
2023-01-08T11:45:25.443Z,5.90
2023-01-08T11:48:00.788Z,6.00
2023-01-08T11:50:50.403Z,6.20
2023-01-08T11:53:42.723Z,6.40
2023-01-08T11:56:33.464Z,6.50
2023-01-08T11:59:26.699Z,6.50
2023-01-08T12:02:03.694Z,6.50
2023-01-08T12:04:48.273Z,6.30
2023-01-08T12:07:25.084Z,5.90
2023-01-08T12:10:24.835Z,6.00
2023-01-08T12:13:15.630Z,6.20
2023-01-08T12:16:22.816Z,6.50
2023-01-08T12:18:58.904Z,6.60
2023-01-08T12:21:26.376Z,6.70
2023-01-08T12:24:02.102Z,6.60
2023-01-08T12:26:59.314Z,6.70
2023-01-08T12:29:34.974Z,6.60
2023-01-08T12:32:17.472Z,6.40
2023-01-08T12:34:58.400Z,6.40
2023-01-08T12:37:31.900Z,6.40
2023-01-08T12:40:07.857Z,6.40
2023-01-08T12:42:41.227Z,6.40
2023-01-08T12:45:21.202Z,6.50
2023-01-08T12:47:55.291Z,6.50
2023-01-08T12:50:34.677Z,6.60
2023-01-08T12:53:24.897Z,6.70
2023-01-08T12:56:01.325Z,6.80
2023-01-08T12:58:39.768Z,6.80
2023-01-08T13:01:34.716Z,6.80
2023-01-08T13:04:04.933Z,6.90
2023-01-08T13:06:32.344Z,7.00
2023-01-08T13:09:01.733Z,7.00
2023-01-08T13:11:30.835Z,7.10
2023-01-08T13:14:02.446Z,7.10
2023-01-08T13:16:32.056Z,7.10
2023-01-08T13:19:01.769Z,7.10
2023-01-08T13:21:32.480Z,7.10
2023-01-08T13:24:02.279Z,7.10
2023-01-08T13:26:31.820Z,7.10
2023-01-08T13:29:23.789Z,7.00
2023-01-08T13:31:51.795Z,7.00
2023-01-08T13:34:33.676Z,6.90
2023-01-08T13:37:01.119Z,6.90
2023-01-08T13:39:38.074Z,6.90
2023-01-08T13:42:14.091Z,6.90
2023-01-08T13:44:48.066Z,6.90
2023-01-08T13:47:22.293Z,6.90
2023-01-08T13:49:53.457Z,6.80
2023-01-08T13:52:34.283Z,6.80
2023-01-08T13:55:05.372Z,6.70
2023-01-08T13:57:41.505Z,6.70
2023-01-08T14:00:18.483Z,6.60
2023-01-08T14:02:50.719Z,6.60
2023-01-08T14:05:23.393Z,6.50
2023-01-08T14:07:50.673Z,6.40
2023-01-08T14:10:19.350Z,6.40
2023-01-08T14:12:47.760Z,6.30
2023-01-08T14:15:27.180Z,6.30
2023-01-08T14:17:56.232Z,6.20
2023-01-08T14:20:33.218Z,6.10
2023-01-08T14:23:02.601Z,6.10
2023-01-08T14:25:30.584Z,6.00
2023-01-08T14:28:01.257Z,5.90
2023-01-08T14:30:28.870Z,5.90
2023-01-08T14:32:58.044Z,5.80
2023-01-08T14:35:32.807Z,5.70
2023-01-08T14:38:01.792Z,5.70
2023-01-08T14:40:35.901Z,5.70
2023-01-08T14:43:09.366Z,5.60
2023-01-08T14:45:38.696Z,5.50
2023-01-08T14:48:13.897Z,5.50
2023-01-08T14:50:44.177Z,5.40
2023-01-08T14:53:35.611Z,5.40
2023-01-08T14:56:05.843Z,5.30
2023-01-08T14:58:38.329Z,5.30
2023-01-08T15:01:15.561Z,5.20
2023-01-08T15:03:45.517Z,5.20
2023-01-08T15:06:23.432Z,5.20
2023-01-08T15:08:50.653Z,5.20
2023-01-08T15:11:19.009Z,5.20
2023-01-08T15:13:48.236Z,5.20
2023-01-08T15:16:40.176Z,5.10
2023-01-08T15:19:18.123Z,5.10
2023-01-08T15:21:48.767Z,5.00
2023-01-08T15:24:39.628Z,5.00
2023-01-08T15:27:11.248Z,5.00
2023-01-08T15:29:47.371Z,4.90
2023-01-08T15:32:14.589Z,4.90
2023-01-08T15:34:43.427Z,4.90
2023-01-08T15:37:11.528Z,4.90
2023-01-08T15:39:38.847Z,4.90
2023-01-08T15:42:41.130Z,4.80
2023-01-08T15:45:15.400Z,4.80
2023-01-08T15:47:42.890Z,4.90
2023-01-08T15:50:11.007Z,4.90
2023-01-08T15:52:40.633Z,4.90
2023-01-08T15:55:15.268Z,4.90
2023-01-08T15:57:42.928Z,5.00
2023-01-08T16:00:13.292Z,5.10
2023-01-08T16:02:44.989Z,5.10
2023-01-08T16:05:14.325Z,5.00
2023-01-08T16:07:41.620Z,5.00
2023-01-08T16:10:09.878Z,4.90
2023-01-08T16:12:37.218Z,4.90
2023-01-08T16:15:08.303Z,4.90
2023-01-08T16:17:36.805Z,4.90
2023-01-08T16:20:05.826Z,4.80
2023-01-08T16:22:33.381Z,4.80
2023-01-08T16:25:00.814Z,4.90
2023-01-08T16:27:28.148Z,4.90
2023-01-08T16:29:55.656Z,4.90
2023-01-08T16:32:23.280Z,4.90
2023-01-08T16:34:50.544Z,4.90
2023-01-08T16:37:17.820Z,4.90
2023-01-08T16:39:45.111Z,5.00
2023-01-08T16:42:12.520Z,5.00
2023-01-08T16:44:39.843Z,5.00
2023-01-08T16:47:07.333Z,5.00
2023-01-08T16:49:36.234Z,5.10
2023-01-08T16:52:04.115Z,5.10
2023-01-08T16:54:33.221Z,5.20
2023-01-08T16:57:00.464Z,5.20
2023-01-08T16:59:28.008Z,5.20
2023-01-08T17:01:55.639Z,5.20
2023-01-08T17:04:23.501Z,5.20
2023-01-08T17:06:50.645Z,5.30
2023-01-08T17:09:17.875Z,5.40
2023-01-08T17:11:47.016Z,5.50
2023-01-08T17:14:14.422Z,5.70
2023-01-08T17:16:45.339Z,6.00
2023-01-08T17:19:13.511Z,6.00
2023-01-08T17:21:40.911Z,6.10
2023-01-08T17:24:09.498Z,6.10
2023-01-08T17:26:36.744Z,6.30
2023-01-08T17:29:04.408Z,6.30
2023-01-08T17:31:39.598Z,6.30
2023-01-08T17:34:11.491Z,6.30
2023-01-08T17:36:38.711Z,6.30
2023-01-08T17:39:05.811Z,6.20
2023-01-08T17:41:54.715Z,6.20
2023-01-08T17:44:22.259Z,6.30
2023-01-08T17:46:49.571Z,6.50
2023-01-08T17:49:17.969Z,6.50
2023-01-08T17:51:46.633Z,6.60
2023-01-08T17:54:16.350Z,6.60
2023-01-08T17:56:44.341Z,6.50
2023-01-08T17:59:16.155Z,6.50
2023-01-08T18:01:45.745Z,6.50
2023-01-08T18:04:13.897Z,6.40
2023-01-08T18:06:41.928Z,6.40
2023-01-08T18:09:12.138Z,6.30
2023-01-08T18:11:40.661Z,6.30
2023-01-08T18:14:08.017Z,6.30
2023-01-08T18:16:35.321Z,6.20
2023-01-08T18:19:02.776Z,6.20
2023-01-08T18:21:30.237Z,6.10
2023-01-08T18:23:57.744Z,6.10
2023-01-08T18:26:25.421Z,6.10
2023-01-08T18:28:53.346Z,6.10
2023-01-08T18:31:21.178Z,6.00
2023-01-08T18:33:51.953Z,5.90
2023-01-08T18:36:20.087Z,5.90
2023-01-08T18:38:48.561Z,5.90
2023-01-08T18:41:37.927Z,6.00
2023-01-08T18:44:07.413Z,6.10
2023-01-08T18:46:35.341Z,6.20
2023-01-08T18:49:02.846Z,6.20
2023-01-08T18:51:30.032Z,6.20
2023-01-08T18:53:57.325Z,6.10
2023-01-08T18:56:30.259Z,6.00
2023-01-08T18:58:58.110Z,6.00
2023-01-08T19:01:26.489Z,6.00
2023-01-08T19:03:54.044Z,5.90
2023-01-08T19:06:21.829Z,5.80
2023-01-08T19:08:49.634Z,5.80
2023-01-08T19:11:17.118Z,5.80
2023-01-08T19:13:44.259Z,5.70
2023-01-08T19:16:14.434Z,5.70
2023-01-08T19:18:42.102Z,5.60
2023-01-08T19:21:11.447Z,5.70
2023-01-08T19:23:38.845Z,5.60
2023-01-08T19:26:08.063Z,5.70
2023-01-08T19:28:36.080Z,5.70
2023-01-08T19:31:03.917Z,5.80
2023-01-08T19:33:31.282Z,5.70
2023-01-08T19:36:03.260Z,5.70
2023-01-08T19:38:30.624Z,5.80
2023-01-08T19:41:00.543Z,5.80
2023-01-08T19:43:43.480Z,6.00
2023-01-08T19:46:16.097Z,6.10
2023-01-08T19:48:44.556Z,6.00
2023-01-08T19:51:13.318Z,6.00
2023-01-08T19:53:41.259Z,6.00
2023-01-08T19:56:11.306Z,5.90
2023-01-08T19:58:39.122Z,5.90
2023-01-08T20:01:12.908Z,5.80
2023-01-08T20:03:40.880Z,5.80
2023-01-08T20:06:11.052Z,5.90
2023-01-08T20:08:39.656Z,6.00
2023-01-08T20:11:10.682Z,6.00
2023-01-08T20:13:38.707Z,6.10
2023-01-08T20:16:08.476Z,6.20
2023-01-08T20:18:36.258Z,6.40
2023-01-08T20:21:12.229Z,6.60
2023-01-08T20:23:39.885Z,6.90
2023-01-08T20:26:10.262Z,7.00
2023-01-08T20:28:38.923Z,7.10
2023-01-08T20:31:09.301Z,7.10
2023-01-08T20:33:37.518Z,7.00
2023-01-08T20:36:09.609Z,7.00
2023-01-08T20:38:38.114Z,6.90
2023-01-08T20:41:07.001Z,6.90
2023-01-08T20:43:35.707Z,6.90
2023-01-08T20:46:04.048Z,6.80
2023-01-08T20:48:36.956Z,6.70
2023-01-08T20:51:07.834Z,6.50
2023-01-08T20:53:37.655Z,6.40
2023-01-08T20:56:08.050Z,6.40
2023-01-08T20:58:37.338Z,6.30
2023-01-08T21:01:07.436Z,6.30
2023-01-08T21:03:36.035Z,6.30
2023-01-08T21:06:07.941Z,6.20
2023-01-08T21:08:35.517Z,6.30
2023-01-08T21:11:08.793Z,6.60
2023-01-08T21:13:36.804Z,6.70
2023-01-08T21:16:08.179Z,6.90
2023-01-08T21:18:36.140Z,7.10
2023-01-08T21:21:05.274Z,7.30
2023-01-08T21:23:33.765Z,7.60
2023-01-08T21:26:05.009Z,7.70
2023-01-08T21:28:33.391Z,7.90
2023-01-08T21:31:06.290Z,8.10
2023-01-08T21:33:34.294Z,8.30
2023-01-08T21:36:05.961Z,8.30
2023-01-08T21:38:33.874Z,8.20
2023-01-08T21:41:07.620Z,8.20
2023-01-08T21:43:55.066Z,8.20
2023-01-08T21:46:27.969Z,8.10
2023-01-08T21:48:55.415Z,8.00
2023-01-08T21:51:42.515Z,8.10
2023-01-08T21:54:09.679Z,8.00
2023-01-08T21:56:36.817Z,8.00
2023-01-08T21:59:04.027Z,7.90
2023-01-08T22:01:31.245Z,7.90
2023-01-08T22:03:58.525Z,7.70
2023-01-08T22:06:25.646Z,7.70
2023-01-08T22:08:55.084Z,7.60
2023-01-08T22:11:23.959Z,7.70
2023-01-08T22:13:51.109Z,7.80
2023-01-08T22:16:18.242Z,7.90
2023-01-08T22:18:45.454Z,8.00
2023-01-08T22:21:13.431Z,8.10
2023-01-08T22:23:40.919Z,8.10
2023-01-08T22:26:10.688Z,8.20
2023-01-08T22:28:39.470Z,8.30
2023-01-08T22:31:08.424Z,8.30
2023-01-08T22:33:36.540Z,8.30
2023-01-08T22:36:05.534Z,8.40
2023-01-08T22:38:33.039Z,8.30
2023-01-08T22:41:00.503Z,8.30
2023-01-08T22:43:27.700Z,8.30
2023-01-08T22:45:57.539Z,8.20
2023-01-08T22:48:26.301Z,8.00
2023-01-08T22:50:53.792Z,7.80
2023-01-08T22:53:20.891Z,7.80
2023-01-08T22:55:48.813Z,7.80
2023-01-08T22:58:17.004Z,7.80
2023-01-08T23:00:44.461Z,7.80
2023-01-08T23:03:11.988Z,8.00
2023-01-08T23:05:40.290Z,8.40
2023-01-08T23:08:08.224Z,8.70
2023-01-08T23:10:35.516Z,9.00
2023-01-08T23:13:02.874Z,9.30
2023-01-08T23:15:30.459Z,9.50
2023-01-08T23:17:57.547Z,9.70
2023-01-08T23:20:25.217Z,9.70
2023-01-08T23:22:52.561Z,9.80
2023-01-08T23:25:19.860Z,9.90
2023-01-08T23:27:47.154Z,10.00
2023-01-08T23:30:14.470Z,10.00
2023-01-08T23:32:41.626Z,10.00
2023-01-08T23:35:23.297Z,10.10
2023-01-08T23:37:59.075Z,10.10
2023-01-08T23:40:26.365Z,10.10
2023-01-08T23:42:53.595Z,10.00
2023-01-08T23:45:20.768Z,10.10
2023-01-08T23:47:48.124Z,10.10
2023-01-08T23:50:16.744Z,10.00
2023-01-08T23:52:43.968Z,10.00
2023-01-08T23:55:11.078Z,10.00
2023-01-08T23:57:38.317Z,10.00
